Time;durP1;ratioP1;P1;durP2;ratioP2;P2;SDS_P1;SDS_P2;PMS_P1;PMS_P2;Temp;Humidity;BMP_temperature;BMP_pressure;BME280_temperature;BME280_humidity;BME280_pressure;Samples;Min_cycle;Max_cycle;Signal;HPM_P1;HPM_P2
2022/10/31 00:01:00;;;;;;;9.97;5.20;;;13.60;99.90;;;;;;4995766;28;20995;-68
2022/10/31 00:03:26;;;;;;;10.80;5.07;;;13.60;99.90;;;;;;4995538;28;20676;-68
2022/10/31 00:05:52;;;;;;;7.27;4.60;;;13.50;99.90;;;;;;4995545;28;20215;-68
2022/10/31 00:08:18;;;;;;;7.03;5.40;;;13.60;99.90;;;;;;4995300;28;20255;-68
2022/10/31 00:10:45;;;;;;;8.63;4.87;;;13.60;99.90;;;;;;4995625;28;20480;-68
2022/10/31 00:13:12;;;;;;;7.13;5.23;;;13.50;99.90;;;;;;4995489;28;20410;-68
2022/10/31 00:15:39;;;;;;;7.60;4.50;;;13.50;99.90;;;;;;4995256;28;20956;-68
2022/10/31 00:18:06;;;;;;;5.83;5.03;;;13.40;99.90;;;;;;4995099;28;20493;-68
2022/10/31 00:20:32;;;;;;;5.93;5.20;;;13.40;99.90;;;;;;4995241;28;20431;-68
2022/10/31 00:22:59;;;;;;;5.00;4.43;;;13.40;99.90;;;;;;4995281;28;20415;-68
2022/10/31 00:25:25;;;;;;;6.00;5.40;;;13.40;99.90;;;;;;4994991;28;20419;-68
2022/10/31 00:27:51;;;;;;;5.03;4.37;;;13.50;99.90;;;;;;4995214;28;20419;-68
2022/10/31 00:30:16;;;;;;;8.40;4.10;;;13.50;99.90;;;;;;4994827;28;20448;-68
2022/10/31 00:32:42;;;;;;;5.00;4.50;;;13.40;99.90;;;;;;4995033;28;20512;-68
2022/10/31 00:35:07;;;;;;;8.10;4.83;;;13.40;99.90;;;;;;4995204;28;20648;-68
2022/10/31 00:37:33;;;;;;;5.23;4.20;;;13.30;99.90;;;;;;4995039;28;20302;-68
2022/10/31 00:39:58;;;;;;;6.80;4.77;;;13.20;99.90;;;;;;4993168;28;20180;-68
2022/10/31 00:42:24;;;;;;;6.20;4.60;;;13.20;99.90;;;;;;4995000;28;20625;-67
2022/10/31 00:44:50;;;;;;;5.93;4.13;;;13.10;99.90;;;;;;4994938;28;20164;-67
2022/10/31 00:47:15;;;;;;;7.40;4.43;;;13.10;99.90;;;;;;4994684;28;20434;-67
2022/10/31 00:49:41;;;;;;;4.47;4.07;;;13.10;99.90;;;;;;4994667;28;20187;-67
2022/10/31 00:52:07;;;;;;;7.70;5.60;;;13.10;99.90;;;;;;4994897;28;20552;-67
2022/10/31 00:54:32;;;;;;;7.37;5.37;;;13.10;99.90;;;;;;4994823;28;20187;-67
2022/10/31 00:56:58;;;;;;;5.57;4.77;;;13.20;99.90;;;;;;4994578;28;20195;-68
2022/10/31 00:59:23;;;;;;;12.73;4.90;;;13.20;99.90;;;;;;4994354;28;20203;-67
2022/10/31 01:01:49;;;;;;;5.53;4.67;;;13.10;99.90;;;;;;4994444;28;20168;-67
2022/10/31 01:04:14;;;;;;;7.40;4.77;;;13.10;99.90;;;;;;4994687;28;20171;-67
2022/10/31 01:06:40;;;;;;;6.70;5.40;;;13.10;99.90;;;;;;4994423;28;20361;-66
2022/10/31 01:09:06;;;;;;;8.77;4.40;;;13.00;99.90;;;;;;4994108;28;20182;-66
2022/10/31 01:11:32;;;;;;;6.30;4.30;;;12.90;99.90;;;;;;4994465;28;20502;-66
2022/10/31 01:13:57;;;;;;;5.80;4.70;;;13.00;99.90;;;;;;4994274;28;20187;-66
2022/10/31 01:16:25;;;;;;;6.23;4.83;;;13.00;99.90;;;;;;4994106;28;20261;-66
2022/10/31 01:18:51;;;;;;;7.07;4.67;;;13.00;99.90;;;;;;5009227;28;20584;-66
2022/10/31 01:21:19;;;;;;;8.90;4.80;;;13.00;99.90;;;;;;4994291;28;20418;-66
2022/10/31 01:23:45;;;;;;;4.90;3.97;;;13.00;99.90;;;;;;4994118;28;20172;-66
2022/10/31 01:26:20;;;;;;;5.70;4.50;;;13.00;99.90;;;;;;4994108;28;20504;-66
2022/10/31 01:28:51;;;;;;;5.77;4.67;;;12.90;99.90;;;;;;4993786;28;20171;-66
2022/10/31 01:31:19;;;;;;;6.30;4.87;;;12.90;99.90;;;;;;4994043;28;20470;-66
2022/10/31 01:33:45;;;;;;;9.10;5.40;;;12.90;99.90;;;;;;4993835;28;20426;-66
2022/10/31 01:36:12;;;;;;;8.33;4.37;;;12.90;99.90;;;;;;4993840;28;20442;-66
2022/10/31 01:38:38;;;;;;;6.93;5.20;;;12.90;99.90;;;;;;4992255;28;20234;-66
2022/10/31 01:41:04;;;;;;;7.03;4.63;;;12.90;99.90;;;;;;4993898;28;21061;-66
2022/10/31 01:43:44;;;;;;;6.80;5.00;;;12.80;99.90;;;;;;4993756;28;20311;-66
2022/10/31 01:46:10;;;;;;;9.23;5.00;;;12.80;99.90;;;;;;4993681;28;20191;-66
2022/10/31 01:48:36;;;;;;;8.50;5.47;;;12.80;99.90;;;;;;4993452;28;20426;-66
2022/10/31 01:51:04;;;;;;;9.27;4.27;;;12.90;99.90;;;;;;4993039;28;20806;-66
2022/10/31 01:53:31;;;;;;;6.37;4.40;;;12.90;99.90;;;;;;4993580;28;20176;-66
2022/10/31 01:55:56;;;;;;;7.70;4.90;;;12.90;99.90;;;;;;4992236;28;20446;-66
2022/10/31 01:58:30;;;;;;;7.67;4.43;;;12.90;99.90;;;;;;4993095;28;20958;-67
2022/10/31 02:00:58;;;;;;;7.40;5.20;;;12.90;99.90;;;;;;4993494;28;20172;-66
2022/10/31 02:03:25;;;;;;;9.10;4.97;;;12.90;99.90;;;;;;4993471;28;20981;-66
2022/10/31 02:05:54;;;;;;;7.60;4.83;;;12.80;99.90;;;;;;4993271;28;20450;-66
2022/10/31 02:08:25;;;;;;;14.97;6.20;;;12.80;99.90;;;;;;4992984;28;20427;-66
2022/10/31 02:10:52;;;;;;;7.13;5.40;;;12.80;99.90;;;;;;4993346;28;20426;-66
2022/10/31 02:13:19;;;;;;;6.27;4.30;;;12.80;99.90;;;;;;4993199;28;20458;-66
2022/10/31 02:15:46;;;;;;;13.30;5.73;;;12.80;99.90;;;;;;4993142;28;20443;-66
2022/10/31 02:18:12;;;;;;;6.40;4.50;;;12.70;99.90;;;;;;4992867;28;20492;-66
2022/10/31 02:20:49;;;;;;;8.17;5.27;;;12.70;99.90;;;;;;4993091;28;20422;-66
2022/10/31 02:23:39;;;;;;;6.60;5.00;;;12.70;99.90;;;;;;4993301;28;20422;-66
2022/10/31 02:26:19;;;;;;;6.73;4.90;;;12.70;99.90;;;;;;4993030;28;20481;-66
2022/10/31 02:28:47;;;;;;;6.80;4.67;;;12.60;99.90;;;;;;4992646;28;20432;-66
2022/10/31 02:31:40;;;;;;;7.37;4.53;;;12.60;99.90;;;;;;4992955;28;20419;-66
2022/10/31 02:34:20;;;;;;;6.00;4.03;;;12.50;99.90;;;;;;4992939;28;20481;-66
2022/10/31 02:36:56;;;;;;;9.70;4.97;;;12.50;99.90;;;;;;4992860;28;20824;-66
2022/10/31 02:39:30;;;;;;;7.90;4.20;;;12.50;99.90;;;;;;4992640;28;20558;-66
2022/10/31 02:42:37;;;;;;;6.93;4.40;;;12.50;99.90;;;;;;4992878;28;20472;-66
2022/10/31 02:45:20;;;;;;;5.67;4.40;;;12.40;99.90;;;;;;4992729;28;20465;-66
2022/10/31 02:47:49;;;;;;;8.70;4.00;;;12.60;99.90;;;;;;4992701;28;20410;-66
2022/10/31 02:50:40;;;;;;;9.10;5.43;;;12.50;99.90;;;;;;4992425;28;20463;-66
2022/10/31 02:53:06;;;;;;;5.33;4.77;;;12.50;99.90;;;;;;4992348;28;20458;-66
2022/10/31 02:55:34;;;;;;;10.03;4.37;;;12.40;99.90;;;;;;4992683;28;20453;-67
2022/10/31 02:58:11;;;;;;;9.00;4.73;;;12.40;99.90;;;;;;4992632;28;20199;-67
2022/10/31 03:01:18;;;;;;;11.70;4.33;;;12.40;99.90;;;;;;4992519;28;20422;-66
2022/10/31 03:04:14;;;;;;;6.70;4.20;;;12.40;99.90;;;;;;4996670;28;20429;-66
2022/10/31 03:06:51;;;;;;;8.37;5.60;;;12.40;99.90;;;;;;4996550;28;21019;-66
2022/10/31 03:09:53;;;;;;;6.20;4.63;;;12.30;99.90;;;;;;4996400;28;20446;-66
2022/10/31 03:12:44;;;;;;;9.80;3.97;;;12.30;99.90;;;;;;4996606;28;20472;-66
2022/10/31 03:15:21;;;;;;;5.63;4.80;;;12.20;99.90;;;;;;4996553;28;20460;-66
2022/10/31 03:18:08;;;;;;;7.23;5.47;;;12.20;99.90;;;;;;4996505;28;20513;-66
2022/10/31 03:21:10;;;;;;;8.17;4.93;;;12.20;99.90;;;;;;4996301;28;20472;-67
2022/10/31 03:23:38;;;;;;;8.97;4.60;;;12.20;99.90;;;;;;4984397;28;20420;-67
2022/10/31 03:26:07;;;;;;;6.90;4.00;;;12.20;99.90;;;;;;4996155;28;20458;-66
2022/10/31 03:28:56;;;;;;;12.13;5.60;;;12.20;99.90;;;;;;4996145;28;20442;-66
2022/10/31 03:31:29;;;;;;;8.70;4.90;;;12.20;99.90;;;;;;4995827;28;20917;-66
2022/10/31 03:33:58;;;;;;;6.07;4.87;;;12.10;99.90;;;;;;4996330;28;20444;-66
2022/10/31 03:36:25;;;;;;;6.50;5.60;;;12.00;99.90;;;;;;4996179;28;20541;-66
2022/10/31 03:38:51;;;;;;;7.17;4.90;;;12.20;99.90;;;;;;4995811;28;20423;-66
2022/10/31 03:41:23;;;;;;;5.57;5.00;;;12.10;99.90;;;;;;4996019;28;20465;-65
2022/10/31 03:44:04;;;;;;;6.27;5.20;;;12.10;99.90;;;;;;4996006;28;20433;-65
2022/10/31 03:46:29;;;;;;;6.13;4.40;;;12.10;99.90;;;;;;4995802;28;20454;-65
2022/10/31 03:48:55;;;;;;;8.63;4.60;;;12.10;99.90;;;;;;4995567;28;20484;-66
2022/10/31 03:51:38;;;;;;;11.07;5.07;;;12.10;99.90;;;;;;4996020;28;20211;-65
2022/10/31 03:54:09;;;;;;;8.00;4.47;;;12.10;99.90;;;;;;4995901;28;20201;-65
2022/10/31 03:56:40;;;;;;;6.93;6.10;;;12.10;99.90;;;;;;4994348;28;20987;-65
2022/10/31 03:59:17;;;;;;;10.20;5.57;;;12.00;99.90;;;;;;4995460;28;20431;-65
2022/10/31 04:01:48;;;;;;;13.63;5.83;;;12.10;99.90;;;;;;4995818;28;20848;-66
2022/10/31 04:04:14;;;;;;;7.00;5.10;;;12.00;99.90;;;;;;4995642;28;20452;-66
2022/10/31 04:06:44;;;;;;;8.47;6.60;;;11.90;99.90;;;;;;4995881;28;20998;-66
2022/10/31 04:09:10;;;;;;;7.73;5.47;;;11.90;99.90;;;;;;4995182;28;20426;-66
2022/10/31 04:11:48;;;;;;;5.20;4.70;;;11.90;99.90;;;;;;4995542;28;20425;-66
2022/10/31 04:14:13;;;;;;;7.00;5.77;;;11.90;99.90;;;;;;4994745;28;20445;-65
2022/10/31 04:16:42;;;;;;;6.07;5.07;;;12.00;99.90;;;;;;4995243;28;20533;-66
2022/10/31 04:19:08;;;;;;;7.37;5.10;;;12.00;99.90;;;;;;4995158;28;20178;-65
2022/10/31 04:21:33;;;;;;;8.70;5.47;;;11.90;99.90;;;;;;4995255;28;20518;-65
2022/10/31 04:23:59;;;;;;;9.60;5.73;;;11.90;99.90;;;;;;4995326;28;20238;-65
2022/10/31 04:26:24;;;;;;;7.30;4.60;;;11.90;99.90;;;;;;4995246;28;20211;-65
2022/10/31 04:28:50;;;;;;;6.40;4.80;;;11.80;99.90;;;;;;4994970;28;20521;-65
2022/10/31 04:31:15;;;;;;;10.93;5.40;;;11.80;99.90;;;;;;4995126;28;20172;-65
2022/10/31 04:33:41;;;;;;;5.90;4.60;;;11.80;99.90;;;;;;4995099;28;20203;-65
2022/10/31 04:36:07;;;;;;;9.23;5.60;;;11.80;99.90;;;;;;4995009;28;20246;-66
2022/10/31 04:38:33;;;;;;;6.47;4.83;;;11.80;99.90;;;;;;4994707;28;20230;-66
2022/10/31 04:40:59;;;;;;;8.13;5.73;;;11.80;99.90;;;;;;4994996;28;20505;-68
2022/10/31 04:43:24;;;;;;;6.93;5.40;;;11.70;99.90;;;;;;4994941;28;20175;-65
2022/10/31 04:45:50;;;;;;;5.73;5.13;;;11.60;99.90;;;;;;4994717;28;20211;-65
2022/10/31 04:48:15;;;;;;;7.97;5.10;;;11.60;99.90;;;;;;4994559;28;20184;-65
2022/10/31 04:50:41;;;;;;;15.00;6.00;;;11.60;99.90;;;;;;4994882;28;20202;-66
2022/10/31 04:53:07;;;;;;;15.67;5.90;;;11.60;99.90;;;;;;4994712;28;20188;-67
2022/10/31 04:55:33;;;;;;;10.83;5.93;;;11.60;99.90;;;;;;4993411;28;20179;-67
2022/10/31 04:57:58;;;;;;;6.97;6.00;;;11.60;99.90;;;;;;4994614;28;20467;-67
2022/10/31 05:00:24;;;;;;;12.20;5.67;;;11.60;99.90;;;;;;4994330;28;20728;-67
2022/10/31 05:02:55;;;;;;;6.87;4.60;;;11.70;99.90;;;;;;4994526;28;20175;-67
2022/10/31 05:05:24;;;;;;;6.23;5.07;;;11.70;99.90;;;;;;4994395;28;20171;-68
2022/10/31 05:07:50;;;;;;;7.80;5.37;;;11.70;99.90;;;;;;4994431;28;20967;-68
2022/10/31 05:10:20;;;;;;;9.20;5.77;;;11.60;99.90;;;;;;4994309;28;20426;-68
2022/10/31 05:12:51;;;;;;;5.77;5.27;;;11.60;99.90;;;;;;4994367;28;20427;-67
2022/10/31 05:15:18;;;;;;;12.40;5.60;;;11.60;99.90;;;;;;4994197;28;20462;-67
2022/10/31 05:17:44;;;;;;;16.33;6.07;;;11.70;99.90;;;;;;4994201;28;20516;-67
2022/10/31 05:20:11;;;;;;;12.90;8.03;;;11.60;99.90;;;;;;4993910;28;20415;-68
2022/10/31 05:22:41;;;;;;;19.70;9.93;;;11.60;99.90;;;;;;4994225;28;20422;-68
2022/10/31 05:25:07;;;;;;;8.90;6.63;;;11.50;99.90;;;;;;4993311;28;20415;-67
2022/10/31 05:27:32;;;;;;;9.33;5.57;;;11.50;99.90;;;;;;4996176;23;20587;-65
2022/10/31 05:29:58;;;;;;;7.50;6.17;;;11.50;99.90;;;;;;4954524;28;20263;-66
2022/10/31 05:32:23;;;;;;;10.93;5.97;;;11.40;99.90;;;;;;4955346;28;20256;-67
2022/10/31 05:34:49;;;;;;;11.33;5.40;;;11.40;99.90;;;;;;4955284;28;20173;-65
2022/10/31 05:37:14;;;;;;;8.40;5.23;;;11.40;99.90;;;;;;4955319;28;20713;-66
2022/10/31 05:39:40;;;;;;;7.93;6.50;;;11.40;99.90;;;;;;4954912;29;20176;-67
2022/10/31 05:42:05;;;;;;;10.00;6.10;;;11.30;99.90;;;;;;4955216;29;20181;-66
2022/10/31 05:44:30;;;;;;;8.77;5.27;;;11.30;99.90;;;;;;4955074;29;20181;-65
2022/10/31 05:46:56;;;;;;;8.17;5.70;;;11.30;99.90;;;;;;4955018;29;20618;-65
2022/10/31 05:49:22;;;;;;;9.20;5.50;;;11.30;99.90;;;;;;4954688;28;20177;-65
2022/10/31 05:51:48;;;;;;;7.17;6.00;;;11.30;99.90;;;;;;4955003;28;20193;-65
2022/10/31 05:54:13;;;;;;;7.90;5.40;;;11.20;99.90;;;;;;4955052;29;20930;-66
2022/10/31 05:56:39;;;;;;;5.93;5.30;;;11.20;99.90;;;;;;4954828;29;20193;-65
2022/10/31 05:59:04;;;;;;;7.47;5.30;;;11.20;99.90;;;;;;4954539;29;20184;-66
2022/10/31 06:01:30;;;;;;;7.03;5.53;;;11.20;99.90;;;;;;4954814;29;20542;-66
2022/10/31 06:03:55;;;;;;;11.17;6.90;;;11.10;99.90;;;;;;4954654;29;20176;-65
2022/10/31 06:06:21;;;;;;;9.13;5.93;;;11.00;99.90;;;;;;4954624;29;20219;-66
2022/10/31 06:08:46;;;;;;;7.47;6.00;;;11.00;99.90;;;;;;4954341;29;20169;-66
2022/10/31 06:11:12;;;;;;;5.77;5.13;;;11.00;99.90;;;;;;4954723;29;20169;-65
2022/10/31 06:13:37;;;;;;;11.40;6.77;;;11.00;99.90;;;;;;4954661;29;20600;-66
2022/10/31 06:16:03;;;;;;;7.43;6.57;;;11.10;99.90;;;;;;4954607;29;20549;-67
2022/10/31 06:18:28;;;;;;;7.33;5.57;;;11.10;99.90;;;;;;4954084;28;20705;-66
2022/10/31 06:20:54;;;;;;;12.30;6.63;;;11.10;99.90;;;;;;4954505;29;20177;-66
2022/10/31 06:23:19;;;;;;;8.37;6.10;;;11.10;99.90;;;;;;4954398;29;20176;-66
2022/10/31 06:25:49;;;;;;;7.80;6.20;;;11.10;99.90;;;;;;4954411;29;20231;-66
2022/10/31 06:28:15;;;;;;;7.60;5.70;;;11.20;99.90;;;;;;4953943;28;20220;-65
2022/10/31 06:30:40;;;;;;;10.17;6.23;;;11.20;99.90;;;;;;4954348;29;21008;-66
2022/10/31 06:33:06;;;;;;;8.00;6.77;;;11.30;99.90;;;;;;4954067;29;20181;-65
2022/10/31 06:35:32;;;;;;;7.87;4.97;;;11.30;99.90;;;;;;4954096;29;20181;-65
2022/10/31 06:37:57;;;;;;;8.13;5.77;;;11.30;99.90;;;;;;4953601;28;20255;-65
2022/10/31 06:40:23;;;;;;;9.30;5.77;;;11.30;99.90;;;;;;4953791;29;20416;-65
2022/10/31 06:42:57;;;;;;;8.60;5.37;;;11.30;99.90;;;;;;4953963;29;20165;-66
2022/10/31 06:45:23;;;;;;;7.43;5.50;;;11.40;99.90;;;;;;4954152;29;20589;-66
2022/10/31 06:47:55;;;;;;;11.77;5.60;;;11.50;99.90;;;;;;4953986;29;20957;-66
2022/10/31 06:50:22;;;;;;;6.73;6.00;;;11.60;99.90;;;;;;4953804;29;20412;-65
2022/10/31 06:52:55;;;;;;;6.50;5.90;;;11.80;99.90;;;;;;4953997;29;20428;-66
2022/10/31 06:55:24;;;;;;;6.70;6.10;;;11.90;99.90;;;;;;4954004;28;20475;-65
2022/10/31 06:57:56;;;;;;;8.87;6.43;;;12.00;99.90;;;;;;4953806;28;20464;-65
2022/10/31 07:00:22;;;;;;;15.63;6.43;;;12.10;99.90;;;;;;4953650;29;20475;-65
2022/10/31 07:03:15;;;;;;;7.97;6.50;;;12.10;99.90;;;;;;4963692;28;20804;-66
2022/10/31 07:05:41;;;;;;;8.67;5.47;;;12.30;99.90;;;;;;4953669;28;21228;-66
2022/10/31 07:08:12;;;;;;;7.13;6.10;;;12.30;99.90;;;;;;4953804;28;20448;-66
2022/10/31 07:10:40;;;;;;;11.00;7.10;;;12.50;99.90;;;;;;4958178;28;20952;-66
2022/10/31 07:13:10;;;;;;;7.87;6.50;;;12.60;99.90;;;;;;4963659;28;20497;-66
2022/10/31 07:15:37;;;;;;;10.83;8.60;;;12.80;99.90;;;;;;4969449;28;20428;-65
2022/10/31 07:18:05;;;;;;;9.20;6.80;;;12.90;99.90;;;;;;4972928;28;20609;-66
2022/10/31 07:20:31;;;;;;;8.27;6.47;;;12.90;99.90;;;;;;4971777;28;20427;-67
2022/10/31 07:22:57;;;;;;;8.53;5.83;;;13.10;99.90;;;;;;4956698;28;20443;-66
2022/10/31 07:25:23;;;;;;;11.50;6.27;;;13.20;99.90;;;;;;4952885;28;20774;-66
2022/10/31 07:27:49;;;;;;;8.40;6.23;;;13.50;99.90;;;;;;4953563;28;20643;-67
2022/10/31 07:30:16;;;;;;;8.37;5.53;;;13.50;99.90;;;;;;4953472;28;20421;-66
2022/10/31 07:32:47;;;;;;;10.47;5.70;;;13.60;99.90;;;;;;4953736;28;20692;-66
2022/10/31 07:35:23;;;;;;;8.27;5.97;;;13.70;99.90;;;;;;4953724;28;20918;-66
2022/10/31 07:37:49;;;;;;;8.10;7.30;;;13.80;99.90;;;;;;4953546;28;20467;-66
2022/10/31 07:40:16;;;;;;;6.90;6.30;;;13.80;99.90;;;;;;4953329;28;20420;-66
2022/10/31 07:42:43;;;;;;;12.10;7.43;;;14.00;99.90;;;;;;4953640;28;20484;-66
2022/10/31 07:45:11;;;;;;;9.93;7.70;;;14.00;99.90;;;;;;4953721;28;20511;-66
2022/10/31 07:47:44;;;;;;;15.00;8.70;;;14.20;99.90;;;;;;4953503;28;20441;-66
2022/10/31 07:50:13;;;;;;;11.20;7.20;;;14.20;99.90;;;;;;4956274;28;20523;-65
2022/10/31 07:52:38;;;;;;;16.50;11.50;;;14.40;99.90;;;;;;4957109;28;20483;-66
2022/10/31 07:55:05;;;;;;;10.13;6.63;;;14.70;99.90;;;;;;4957148;28;20432;-66
2022/10/31 07:57:31;;;;;;;10.90;7.83;;;15.00;99.90;;;;;;4956910;28;20208;-65
2022/10/31 07:59:57;;;;;;;10.50;6.53;;;15.20;99.90;;;;;;4956757;28;20910;-66
2022/10/31 08:02:22;;;;;;;7.70;6.93;;;15.40;99.90;;;;;;4956913;28;20431;-66
2022/10/31 08:04:48;;;;;;;10.73;7.27;;;15.70;99.90;;;;;;4956853;28;20180;-67
2022/10/31 08:07:14;;;;;;;10.83;7.77;;;16.00;99.90;;;;;;4957033;28;20200;-67
2022/10/31 08:09:39;;;;;;;9.73;6.97;;;16.20;99.90;;;;;;4956529;28;20261;-66
2022/10/31 08:12:05;;;;;;;8.73;6.70;;;16.50;99.90;;;;;;4956837;28;20184;-66
2022/10/31 08:14:30;;;;;;;10.90;6.70;;;17.00;99.90;;;;;;4956810;28;20181;-68
2022/10/31 08:16:56;;;;;;;8.17;6.73;;;17.10;99.90;;;;;;4956598;28;20209;-66
2022/10/31 08:19:22;;;;;;;7.83;5.93;;;17.20;99.90;;;;;;4956343;28;20236;-66
2022/10/31 08:21:51;;;;;;;7.43;6.73;;;17.70;99.90;;;;;;4956635;28;20232;-66
2022/10/31 08:24:16;;;;;;;8.77;7.70;;;17.80;99.90;;;;;;4956515;28;20631;-66
2022/10/31 08:26:42;;;;;;;9.47;8.03;;;18.00;99.90;;;;;;4956361;28;20467;-67
2022/10/31 08:29:07;;;;;;;7.40;6.00;;;18.00;99.90;;;;;;4956258;28;20217;-66
2022/10/31 08:31:33;;;;;;;11.43;6.93;;;17.70;99.90;;;;;;4956453;28;20191;-67
2022/10/31 08:33:58;;;;;;;12.20;7.30;;;17.60;99.90;;;;;;4956378;28;20205;-66
2022/10/31 08:36:24;;;;;;;11.60;6.93;;;17.40;99.90;;;;;;4956311;28;20647;-66
2022/10/31 08:38:49;;;;;;;11.03;8.07;;;17.60;99.90;;;;;;4956142;28;20213;-66
2022/10/31 08:41:15;;;;;;;10.20;8.17;;;17.80;99.90;;;;;;4956235;28;20216;-66
2022/10/31 08:43:41;;;;;;;10.97;7.73;;;17.90;99.90;;;;;;4956256;28;20177;-65
2022/10/31 08:46:06;;;;;;;9.00;8.20;;;17.90;99.90;;;;;;4956137;28;20528;-66
2022/10/31 08:48:32;;;;;;;9.80;8.60;;;18.30;99.90;;;;;;4954998;28;20204;-66
2022/10/31 08:50:59;;;;;;;12.80;8.00;;;18.60;99.90;;;;;;4955128;28;20191;-67
2022/10/31 08:53:25;;;;;;;11.13;9.63;;;18.40;99.90;;;;;;4951561;28;20196;-65
2022/10/31 08:55:53;;;;;;;11.00;10.00;;;18.00;99.90;;;;;;4955631;28;20971;-65
2022/10/31 08:58:20;;;;;;;10.70;9.50;;;17.80;99.90;;;;;;4954416;28;20479;-66
2022/10/31 09:00:47;;;;;;;7.80;6.80;;;18.10;99.90;;;;;;4954286;28;21028;-65
2022/10/31 09:03:15;;;;;;;10.33;7.47;;;18.30;99.90;;;;;;4954545;28;20436;-66
2022/10/31 09:05:41;;;;;;;12.40;9.40;;;18.60;99.90;;;;;;4952902;29;20445;-66
2022/10/31 09:08:08;;;;;;;10.33;6.93;;;18.40;99.90;;;;;;4954402;28;20447;-67
2022/10/31 09:10:35;;;;;;;13.97;7.47;;;18.20;99.90;;;;;;4955235;28;20227;-66
2022/10/31 09:13:08;;;;;;;10.50;7.20;;;17.90;99.90;;;;;;4954479;28;20503;-65
2022/10/31 09:15:36;;;;;;;9.93;6.87;;;18.40;99.90;;;;;;4954378;28;20447;-66
2022/10/31 09:18:01;;;;;;;15.30;9.27;;;18.80;99.90;;;;;;4954204;28;20540;-65
2022/10/31 09:20:28;;;;;;;10.50;9.50;;;19.30;99.90;;;;;;4954086;28;21000;-66
2022/10/31 09:22:58;;;;;;;8.83;7.93;;;19.60;99.90;;;;;;4952573;29;20196;-65
2022/10/31 09:25:24;;;;;;;11.30;8.23;;;19.60;99.90;;;;;;4951308;29;20456;-65
2022/10/31 09:27:49;;;;;;;10.33;7.20;;;19.50;99.90;;;;;;4953284;28;20519;-66
2022/10/31 09:30:15;;;;;;;10.70;7.47;;;19.40;99.90;;;;;;4953904;28;20525;-67
2022/10/31 09:32:40;;;;;;;9.60;7.10;;;19.30;99.90;;;;;;4955250;28;20201;-66
2022/10/31 09:35:06;;;;;;;9.17;7.20;;;19.20;99.90;;;;;;4955111;28;20181;-65
2022/10/31 09:37:32;;;;;;;7.50;6.80;;;19.40;99.90;;;;;;4953936;28;20223;-66
2022/10/31 09:39:57;;;;;;;9.23;7.03;;;19.50;99.90;;;;;;4954928;28;20486;-65
2022/10/31 09:42:41;;;;;;;10.50;8.00;;;19.70;99.90;;;;;;4955223;28;20180;-65
2022/10/31 09:45:22;;;;;;;11.67;7.00;;;19.90;99.90;;;;;;4955077;28;20187;-66
2022/10/31 09:48:05;;;;;;;12.23;7.37;;;20.20;99.90;;;;;;4954999;28;20458;-65
2022/10/31 09:50:41;;;;;;;9.40;8.10;;;20.20;99.90;;;;;;4954820;28;20427;-67
2022/10/31 09:53:20;;;;;;;10.10;6.63;;;20.20;99.90;;;;;;4954947;28;20483;-65
2022/10/31 09:55:49;;;;;;;7.30;6.43;;;20.50;99.90;;;;;;4955101;28;20426;-66
2022/10/31 09:58:19;;;;;;;13.60;7.80;;;20.70;99.90;;;;;;4954435;28;20909;-66
2022/10/31 10:00:47;;;;;;;9.77;7.27;;;21.10;99.90;;;;;;4954832;28;20428;-66
2022/10/31 10:03:44;;;;;;;15.63;6.97;;;21.20;99.90;;;;;;4954717;28;20425;-66
2022/10/31 10:06:23;;;;;;;11.50;6.70;;;21.40;99.90;;;;;;4954781;28;20771;-66
2022/10/31 10:08:49;;;;;;;10.13;9.13;;;21.50;99.90;;;;;;4953134;29;20471;-67
2022/10/31 10:11:23;;;;;;;9.97;7.23;;;21.50;99.90;;;;;;4954126;28;20467;-66
2022/10/31 10:14:04;;;;;;;9.63;7.27;;;21.30;99.90;;;;;;4959571;28;20184;-67
2022/10/31 10:16:50;;;;;;;11.77;8.50;;;21.60;99.90;;;;;;4971167;28;20450;-66
2022/10/31 10:19:48;;;;;;;10.90;7.63;;;22.00;99.90;;;;;;4973624;28;20478;-66
2022/10/31 10:22:39;;;;;;;9.80;7.30;;;22.20;99.90;;;;;;4973678;28;20448;-67
2022/10/31 10:25:11;;;;;;;10.10;8.07;;;22.20;99.90;;;;;;4973731;28;20412;-66
2022/10/31 10:28:11;;;;;;;9.40;7.03;;;22.30;99.90;;;;;;4973263;28;20561;-69
2022/10/31 10:30:46;;;;;;;10.13;7.30;;;22.50;99.90;;;;;;4928314;28;20467;-68
2022/10/31 10:33:32;;;;;;;11.33;9.23;;;22.80;99.90;;;;;;4961986;28;20430;-65
2022/10/31 10:36:05;;;;;;;9.83;8.93;;;22.80;99.90;;;;;;4958638;28;20826;-65
2022/10/31 10:38:57;;;;;;;13.20;11.80;;;22.50;99.90;;;;;;4953651;28;20492;-67
2022/10/31 10:41:28;;;;;;;12.33;11.13;;;22.20;99.90;;;;;;4954221;28;20425;-66
2022/10/31 10:43:56;;;;;;;13.40;11.70;;;21.90;99.90;;;;;;4954079;28;20933;-66
2022/10/31 10:49:34;;;;;;;12.83;10.20;;;21.80;99.90;;;;;;4972999;28;20469;-66
2022/10/31 10:52:09;;;;;;;13.63;10.90;;;21.80;99.90;;;;;;4973339;28;20430;-66
2022/10/31 10:54:59;;;;;;;12.60;11.20;;;21.60;99.90;;;;;;4969633;28;20450;-66
2022/10/31 10:57:58;;;;;;;19.10;12.77;;;21.50;99.90;;;;;;4943232;28;20475;-66
2022/10/31 11:00:42;;;;;;;12.60;11.20;;;21.40;99.90;;;;;;4972932;28;21000;-66
2022/10/31 11:03:08;;;;;;;13.93;11.10;;;21.20;99.90;;;;;;4973190;28;20506;-67
2022/10/31 11:05:54;;;;;;;14.73;11.00;;;21.30;99.90;;;;;;4973151;28;20423;-65
2022/10/31 11:08:26;;;;;;;17.93;14.37;;;21.40;99.90;;;;;;4972567;28;20457;-67
2022/10/31 11:11:17;;;;;;;16.60;10.67;;;21.40;99.90;;;;;;4973124;28;20551;-67
2022/10/31 11:13:45;;;;;;;11.53;9.80;;;22.00;99.90;;;;;;4973152;28;20809;-67
2022/10/31 11:16:31;;;;;;;14.83;9.70;;;22.50;99.90;;;;;;4960866;28;20464;-66
2022/10/31 11:19:29;;;;;;;10.50;9.30;;;23.20;99.90;;;;;;4953452;29;20546;-67
2022/10/31 11:22:14;;;;;;;10.03;8.40;;;24.50;99.90;;;;;;4931616;28;20471;-68
2022/10/31 11:24:41;;;;;;;12.33;8.50;;;25.10;99.90;;;;;;4955796;29;20502;-67
2022/10/31 11:27:23;;;;;;;9.57;7.67;;;25.60;99.90;;;;;;4957457;28;20468;-68
2022/10/31 11:29:50;;;;;;;8.47;7.67;;;26.10;99.90;;;;;;4957388;28;20453;-66
2022/10/31 11:32:20;;;;;;;10.90;6.80;;;26.40;99.50;;;;;;4957486;28;20423;-67
2022/10/31 11:34:50;;;;;;;10.33;8.13;;;26.40;98.20;;;;;;4956310;29;20421;-69
2022/10/31 11:37:22;;;;;;;13.80;7.20;;;26.70;97.10;;;;;;4957186;28;20519;-68
2022/10/31 11:39:58;;;;;;;8.63;7.73;;;26.80;96.60;;;;;;4957056;28;20416;-75
2022/10/31 11:42:27;;;;;;;7.77;6.97;;;26.70;95.70;;;;;;4995375;23;20485;-68
2022/10/31 11:44:54;;;;;;;8.60;7.30;;;26.40;95.40;;;;;;4995936;28;20477;-68
2022/10/31 11:47:29;;;;;;;16.20;8.37;;;25.70;96.50;;;;;;4995943;28;20911;-67
2022/10/31 11:49:56;;;;;;;11.80;8.10;;;25.60;97.70;;;;;;4995677;28;20418;-68
2022/10/31 11:52:32;;;;;;;8.37;7.37;;;25.50;97.20;;;;;;4995710;28;21006;-68
2022/10/31 11:55:00;;;;;;;10.47;7.70;;;25.10;96.40;;;;;;4995923;28;20418;-67
2022/10/31 11:57:42;;;;;;;13.00;7.57;;;25.00;96.90;;;;;;4995734;28;20506;-66
2022/10/31 12:00:23;;;;;;;11.33;7.40;;;24.80;96.70;;;;;;4995478;28;20423;-68
2022/10/31 12:02:49;;;;;;;12.50;8.70;;;24.10;97.90;;;;;;4995626;28;20481;-69
2022/10/31 12:05:19;;;;;;;9.33;6.50;;;23.70;98.50;;;;;;4995675;28;20423;-69
2022/10/31 12:07:45;;;;;;;12.60;8.30;;;23.40;99.70;;;;;;4995707;28;21002;-69
2022/10/31 12:10:12;;;;;;;9.93;7.20;;;23.00;99.90;;;;;;4995242;28;20797;-69
2022/10/31 12:12:47;;;;;;;10.90;6.90;;;22.10;99.90;;;;;;4995472;28;20803;-68
2022/10/31 12:15:33;;;;;;;7.60;6.90;;;22.20;99.90;;;;;;4995496;28;20464;-66
2022/10/31 12:18:29;;;;;;;9.30;8.00;;;22.40;99.90;;;;;;4995353;28;20537;-69
2022/10/31 12:21:17;;;;;;;9.10;7.43;;;22.90;99.90;;;;;;4995331;28;20450;-69
2022/10/31 12:24:10;;;;;;;9.00;6.70;;;24.00;98.90;;;;;;4995350;28;20926;-68
2022/10/31 12:26:53;;;;;;;10.40;6.40;;;25.10;96.60;;;;;;4995301;28;20415;-67
2022/10/31 12:29:31;;;;;;;10.30;7.70;;;25.80;94.50;;;;;;4995014;28;20458;-68
2022/10/31 12:32:14;;;;;;;12.70;7.97;;;25.90;93.40;;;;;;4995171;28;20439;-67
2022/10/31 12:35:31;;;;;;;7.63;6.93;;;25.20;93.80;;;;;;4994603;28;20860;-69
2022/10/31 12:38:30;;;;;;;11.30;6.70;;;23.90;96.80;;;;;;5002261;28;20542;-67
2022/10/31 12:41:14;;;;;;;7.20;6.33;;;22.90;99.90;;;;;;4994815;28;20810;-67
2022/10/31 12:43:47;;;;;;;7.43;6.67;;;22.00;99.90;;;;;;4994900;28;20433;-67
2022/10/31 12:46:34;;;;;;;8.27;7.07;;;21.60;99.90;;;;;;4990607;28;20431;-67
2022/10/31 12:49:27;;;;;;;13.07;8.40;;;21.40;99.90;;;;;;4974952;28;20415;-67
2022/10/31 12:52:18;;;;;;;8.63;7.73;;;21.00;99.90;;;;;;4987913;28;20454;-67
2022/10/31 12:55:03;;;;;;;14.60;7.60;;;20.50;99.90;;;;;;4994757;28;20423;-67
2022/10/31 12:57:57;;;;;;;9.93;7.03;;;20.30;99.90;;;;;;4994690;28;20458;-67
2022/10/31 13:00:24;;;;;;;14.40;7.90;;;20.30;99.90;;;;;;4992922;28;20445;-67
2022/10/31 13:03:20;;;;;;;11.63;8.63;;;20.20;99.90;;;;;;4994397;28;20947;-67
2022/10/31 13:05:51;;;;;;;13.87;8.37;;;20.10;99.90;;;;;;4993527;28;20437;-67
2022/10/31 13:08:29;;;;;;;8.77;7.63;;;20.20;99.90;;;;;;4994279;28;20419;-67